Terminal Aerodrome Forecast
Issued by NWS Pittsburgh, PA

Current Version | Previous Version | Graphics & Text | Print | Product List | Glossary On
Versions: 1 2 3 4 5 6 7 8 9 10 11 12 13 14 15 16 17 18 19 20 21 22 23 24 25 26 27 28 29 30 31 32 33 34 35
000
FTUS41 KPBZ 230520
TAFPIT
TAF
KPIT 230520Z 2306/2412 25004KT P6SM SKC
     FM230900 27003KT 5SM BR SKC
     FM231300 26003KT P6SM SKC
     FM231500 29007KT P6SM FEW040
     FM240200 VRB03KT P6SM FEW250=

USA.gov is the U.S. government's official web portal to all federal, state and local government web resources and services.